sensor_id;sensor_type;location;lat;lon;timestamp;temperature;humidity
11812;DHT22;5963;50.184;9.162;2022-08-03T00:00:37;19.40;99.90
11812;DHT22;5963;50.184;9.162;2022-08-03T00:03:06;19.30;99.90
11812;DHT22;5963;50.184;9.162;2022-08-03T00:05:35;19.30;99.90
11812;DHT22;5963;50.184;9.162;2022-08-03T00:08:04;19.30;99.90
11812;DHT22;5963;50.184;9.162;2022-08-03T00:10:34;19.20;99.90
11812;DHT22;5963;50.184;9.162;2022-08-03T00:13:02;19.00;99.90
11812;DHT22;5963;50.184;9.162;2022-08-03T00:15:30;19.00;99.90
11812;DHT22;5963;50.184;9.162;2022-08-03T00:17:58;18.90;99.90
11812;DHT22;5963;50.184;9.162;2022-08-03T00:20:27;19.00;99.90
11812;DHT22;5963;50.184;9.162;2022-08-03T00:22:55;19.00;99.90
11812;DHT22;5963;50.184;9.162;2022-08-03T00:25:23;18.90;99.90
11812;DHT22;5963;50.184;9.162;2022-08-03T00:27:54;18.80;99.90
11812;DHT22;5963;50.184;9.162;2022-08-03T00:30:23;18.80;99.90
11812;DHT22;5963;50.184;9.162;2022-08-03T00:32:57;18.70;99.90
11812;DHT22;5963;50.184;9.162;2022-08-03T00:35:26;18.60;99.90
11812;DHT22;5963;50.184;9.162;2022-08-03T00:38:14;18.70;99.90
11812;DHT22;5963;50.184;9.162;2022-08-03T00:40:42;18.60;99.90
11812;DHT22;5963;50.184;9.162;2022-08-03T00:43:12;18.60;99.90
11812;DHT22;5963;50.184;9.162;2022-08-03T00:45:41;18.50;99.90
11812;DHT22;5963;50.184;9.162;2022-08-03T00:48:10;18.40;99.90
11812;DHT22;5963;50.184;9.162;2022-08-03T00:50:58;18.50;99.90
11812;DHT22;5963;50.184;9.162;2022-08-03T00:53:26;18.50;99.90
11812;DHT22;5963;50.184;9.162;2022-08-03T00:55:55;18.50;99.90
11812;DHT22;5963;50.184;9.162;2022-08-03T00:58:25;18.40;99.90
11812;DHT22;5963;50.184;9.162;2022-08-03T01:00:53;18.30;99.90
11812;DHT22;5963;50.184;9.162;2022-08-03T01:03:21;18.30;99.90
11812;DHT22;5963;50.184;9.162;2022-08-03T01:06:02;18.20;99.90
11812;DHT22;5963;50.184;9.162;2022-08-03T01:08:40;18.20;99.90
11812;DHT22;5963;50.184;9.162;2022-08-03T01:11:16;18.10;99.90
11812;DHT22;5963;50.184;9.162;2022-08-03T01:13:56;18.10;99.90
11812;DHT22;5963;50.184;9.162;2022-08-03T01:16:53;18.00;99.90
11812;DHT22;5963;50.184;9.162;2022-08-03T01:19:35;18.00;99.90
11812;DHT22;5963;50.184;9.162;2022-08-03T01:22:22;18.00;99.90
11812;DHT22;5963;50.184;9.162;2022-08-03T01:25:01;18.00;99.90
11812;DHT22;5963;50.184;9.162;2022-08-03T01:27:37;18.00;99.90
11812;DHT22;5963;50.184;9.162;2022-08-03T01:30:11;18.10;99.90
11812;DHT22;5963;50.184;9.162;2022-08-03T01:32:44;18.00;99.90
11812;DHT22;5963;50.184;9.162;2022-08-03T01:35:32;17.90;99.90
11812;DHT22;5963;50.184;9.162;2022-08-03T01:38:08;17.70;99.90
11812;DHT22;5963;50.184;9.162;2022-08-03T01:40:39;17.50;99.90
11812;DHT22;5963;50.184;9.162;2022-08-03T01:43:13;17.50;99.90
11812;DHT22;5963;50.184;9.162;2022-08-03T01:46:06;17.50;99.90
11812;DHT22;5963;50.184;9.162;2022-08-03T01:48:35;17.50;99.90
11812;DHT22;5963;50.184;9.162;2022-08-03T01:51:05;17.60;99.90
11812;DHT22;5963;50.184;9.162;2022-08-03T01:53:41;17.60;99.90
11812;DHT22;5963;50.184;9.162;2022-08-03T01:56:09;17.60;99.90
11812;DHT22;5963;50.184;9.162;2022-08-03T01:58:39;17.60;99.90
11812;DHT22;5963;50.184;9.162;2022-08-03T02:01:12;17.60;99.90
11812;DHT22;5963;50.184;9.162;2022-08-03T02:03:42;17.60;99.90
11812;DHT22;5963;50.184;9.162;2022-08-03T02:06:28;17.60;99.90
11812;DHT22;5963;50.184;9.162;2022-08-03T02:09:20;17.60;99.90
11812;DHT22;5963;50.184;9.162;2022-08-03T02:11:50;17.60;99.90
11812;DHT22;5963;50.184;9.162;2022-08-03T02:14:19;17.50;99.90
11812;DHT22;5963;50.184;9.162;2022-08-03T02:16:50;17.50;99.90
11812;DHT22;5963;50.184;9.162;2022-08-03T02:19:18;17.40;99.90
11812;DHT22;5963;50.184;9.162;2022-08-03T02:21:48;17.40;99.90
11812;DHT22;5963;50.184;9.162;2022-08-03T02:24:23;17.30;99.90
11812;DHT22;5963;50.184;9.162;2022-08-03T02:26:54;17.20;99.90
11812;DHT22;5963;50.184;9.162;2022-08-03T02:29:24;17.30;99.90
11812;DHT22;5963;50.184;9.162;2022-08-03T02:32:09;17.20;99.90
11812;DHT22;5963;50.184;9.162;2022-08-03T02:34:39;17.10;99.90
11812;DHT22;5963;50.184;9.162;2022-08-03T02:37:09;17.10;99.90
11812;DHT22;5963;50.184;9.162;2022-08-03T02:39:40;17.10;99.90
11812;DHT22;5963;50.184;9.162;2022-08-03T02:42:09;17.10;99.90
11812;DHT22;5963;50.184;9.162;2022-08-03T02:44:39;17.00;99.90
11812;DHT22;5963;50.184;9.162;2022-08-03T02:47:14;17.10;99.90
11812;DHT22;5963;50.184;9.162;2022-08-03T02:49:47;17.10;99.90
11812;DHT22;5963;50.184;9.162;2022-08-03T02:52:19;17.00;99.90
11812;DHT22;5963;50.184;9.162;2022-08-03T02:54:52;17.00;99.90
11812;DHT22;5963;50.184;9.162;2022-08-03T02:57:24;17.00;99.90
11812;DHT22;5963;50.184;9.162;2022-08-03T02:59:54;17.00;99.90
11812;DHT22;5963;50.184;9.162;2022-08-03T03:02:24;17.10;99.90
11812;DHT22;5963;50.184;9.162;2022-08-03T03:04:57;17.10;99.90
11812;DHT22;5963;50.184;9.162;2022-08-03T03:07:46;17.10;99.90
11812;DHT22;5963;50.184;9.162;2022-08-03T03:10:19;17.10;99.90
11812;DHT22;5963;50.184;9.162;2022-08-03T03:12:49;17.10;99.90
11812;DHT22;5963;50.184;9.162;2022-08-03T03:15:18;17.10;99.90
11812;DHT22;5963;50.184;9.162;2022-08-03T03:17:48;17.00;99.90
11812;DHT22;5963;50.184;9.162;2022-08-03T03:20:17;17.00;99.90
11812;DHT22;5963;50.184;9.162;2022-08-03T03:22:57;17.00;99.90
11812;DHT22;5963;50.184;9.162;2022-08-03T03:25:27;16.90;99.90
11812;DHT22;5963;50.184;9.162;2022-08-03T03:27:55;16.90;99.90
11812;DHT22;5963;50.184;9.162;2022-08-03T03:30:24;16.90;99.90
11812;DHT22;5963;50.184;9.162;2022-08-03T03:32:54;16.80;99.90
11812;DHT22;5963;50.184;9.162;2022-08-03T03:35:22;16.80;99.90
11812;DHT22;5963;50.184;9.162;2022-08-03T03:37:53;16.80;99.90
11812;DHT22;5963;50.184;9.162;2022-08-03T03:40:21;16.80;99.90
11812;DHT22;5963;50.184;9.162;2022-08-03T03:42:49;16.90;99.90
11812;DHT22;5963;50.184;9.162;2022-08-03T03:45:18;16.90;99.90
11812;DHT22;5963;50.184;9.162;2022-08-03T03:47:47;16.80;99.90
11812;DHT22;5963;50.184;9.162;2022-08-03T03:50:18;16.90;99.90
11812;DHT22;5963;50.184;9.162;2022-08-03T03:52:47;16.90;99.90
11812;DHT22;5963;50.184;9.162;2022-08-03T03:55:16;16.90;99.90
11812;DHT22;5963;50.184;9.162;2022-08-03T03:57:44;17.00;99.90
11812;DHT22;5963;50.184;9.162;2022-08-03T04:00:14;16.90;99.90
11812;DHT22;5963;50.184;9.162;2022-08-03T04:02:42;16.80;99.90
11812;DHT22;5963;50.184;9.162;2022-08-03T04:05:11;16.90;99.90
11812;DHT22;5963;50.184;9.162;2022-08-03T04:08:00;16.90;99.90
11812;DHT22;5963;50.184;9.162;2022-08-03T04:10:55;16.90;99.90
11812;DHT22;5963;50.184;9.162;2022-08-03T04:13:30;16.90;99.90
11812;DHT22;5963;50.184;9.162;2022-08-03T04:16:01;16.90;99.90
11812;DHT22;5963;50.184;9.162;2022-08-03T04:18:32;16.80;99.90
11812;DHT22;5963;50.184;9.162;2022-08-03T04:21:03;16.80;99.90
11812;DHT22;5963;50.184;9.162;2022-08-03T04:23:38;16.70;99.90
11812;DHT22;5963;50.184;9.162;2022-08-03T04:26:09;16.60;99.90
11812;DHT22;5963;50.184;9.162;2022-08-03T04:28:40;16.70;99.90
11812;DHT22;5963;50.184;9.162;2022-08-03T04:31:10;16.70;99.90
11812;DHT22;5963;50.184;9.162;2022-08-03T04:33:40;16.80;99.90
11812;DHT22;5963;50.184;9.162;2022-08-03T04:36:13;16.80;99.90
11812;DHT22;5963;50.184;9.162;2022-08-03T04:38:53;16.90;99.90
11812;DHT22;5963;50.184;9.162;2022-08-03T04:41:24;17.00;99.90
11812;DHT22;5963;50.184;9.162;2022-08-03T04:43:54;17.00;99.90
11812;DHT22;5963;50.184;9.162;2022-08-03T04:46:25;17.10;99.90
11812;DHT22;5963;50.184;9.162;2022-08-03T04:48:54;17.10;99.90
11812;DHT22;5963;50.184;9.162;2022-08-03T04:51:23;17.00;99.90
11812;DHT22;5963;50.184;9.162;2022-08-03T04:53:53;17.00;99.90
11812;DHT22;5963;50.184;9.162;2022-08-03T04:56:21;17.00;99.90
11812;DHT22;5963;50.184;9.162;2022-08-03T04:58:49;17.10;99.90
11812;DHT22;5963;50.184;9.162;2022-08-03T05:01:18;17.20;99.90
11812;DHT22;5963;50.184;9.162;2022-08-03T05:03:48;17.10;99.90
11812;DHT22;5963;50.184;9.162;2022-08-03T05:06:17;17.20;99.90
11812;DHT22;5963;50.184;9.162;2022-08-03T05:08:50;17.30;99.90
11812;DHT22;5963;50.184;9.162;2022-08-03T05:11:20;17.40;99.90
11812;DHT22;5963;50.184;9.162;2022-08-03T05:13:48;17.50;99.90
11812;DHT22;5963;50.184;9.162;2022-08-03T05:16:16;17.50;99.90
11812;DHT22;5963;50.184;9.162;2022-08-03T05:18:44;17.50;99.90
11812;DHT22;5963;50.184;9.162;2022-08-03T05:21:12;17.60;99.90
11812;DHT22;5963;50.184;9.162;2022-08-03T05:23:42;17.70;99.90
11812;DHT22;5963;50.184;9.162;2022-08-03T05:26:10;17.60;99.90
11812;DHT22;5963;50.184;9.162;2022-08-03T05:28:40;17.60;99.90
11812;DHT22;5963;50.184;9.162;2022-08-03T05:31:17;17.60;99.90
11812;DHT22;5963;50.184;9.162;2022-08-03T05:33:45;17.40;99.90
11812;DHT22;5963;50.184;9.162;2022-08-03T05:36:15;17.50;99.90
11812;DHT22;5963;50.184;9.162;2022-08-03T05:38:43;17.60;99.90
11812;DHT22;5963;50.184;9.162;2022-08-03T05:41:11;17.90;99.90
11812;DHT22;5963;50.184;9.162;2022-08-03T05:43:51;18.60;99.90
11812;DHT22;5963;50.184;9.162;2022-08-03T05:46:20;20.00;99.90
11812;DHT22;5963;50.184;9.162;2022-08-03T05:48:48;20.50;99.90
11812;DHT22;5963;50.184;9.162;2022-08-03T05:51:16;20.80;99.90
11812;DHT22;5963;50.184;9.162;2022-08-03T05:53:45;20.60;99.90
11812;DHT22;5963;50.184;9.162;2022-08-03T05:56:13;20.40;99.90
11812;DHT22;5963;50.184;9.162;2022-08-03T05:58:43;20.40;99.90
11812;DHT22;5963;50.184;9.162;2022-08-03T06:01:13;20.80;99.90
11812;DHT22;5963;50.184;9.162;2022-08-03T06:03:41;20.60;99.90
11812;DHT22;5963;50.184;9.162;2022-08-03T06:06:09;20.50;99.90
11812;DHT22;5963;50.184;9.162;2022-08-03T06:08:38;20.50;99.90
11812;DHT22;5963;50.184;9.162;2022-08-03T06:11:07;20.60;99.90
11812;DHT22;5963;50.184;9.162;2022-08-03T06:13:35;20.40;99.90
11812;DHT22;5963;50.184;9.162;2022-08-03T06:16:04;20.30;99.90
11812;DHT22;5963;50.184;9.162;2022-08-03T06:18:36;20.40;99.90
11812;DHT22;5963;50.184;9.162;2022-08-03T06:21:04;20.80;99.90
11812;DHT22;5963;50.184;9.162;2022-08-03T06:23:42;20.90;99.90
11812;DHT22;5963;50.184;9.162;2022-08-03T06:26:22;20.90;99.90
11812;DHT22;5963;50.184;9.162;2022-08-03T06:28:50;21.00;99.90
11812;DHT22;5963;50.184;9.162;2022-08-03T06:31:21;21.20;99.90
11812;DHT22;5963;50.184;9.162;2022-08-03T06:34:01;21.70;99.90
11812;DHT22;5963;50.184;9.162;2022-08-03T06:36:49;22.10;99.90
11812;DHT22;5963;50.184;9.162;2022-08-03T06:39:18;22.20;99.90
11812;DHT22;5963;50.184;9.162;2022-08-03T06:41:50;22.50;99.90
11812;DHT22;5963;50.184;9.162;2022-08-03T06:44:18;22.80;99.90
11812;DHT22;5963;50.184;9.162;2022-08-03T06:46:46;23.20;99.90
11812;DHT22;5963;50.184;9.162;2022-08-03T06:49:16;23.20;99.90
11812;DHT22;5963;50.184;9.162;2022-08-03T06:51:45;22.60;99.90
11812;DHT22;5963;50.184;9.162;2022-08-03T06:54:32;22.80;99.90
11812;DHT22;5963;50.184;9.162;2022-08-03T06:57:01;23.00;99.90
11812;DHT22;5963;50.184;9.162;2022-08-03T06:59:29;23.20;99.90
11812;DHT22;5963;50.184;9.162;2022-08-03T07:02:17;23.30;99.90
11812;DHT22;5963;50.184;9.162;2022-08-03T07:04:48;23.60;99.90
11812;DHT22;5963;50.184;9.162;2022-08-03T07:07:16;23.70;99.90
11812;DHT22;5963;50.184;9.162;2022-08-03T07:09:45;23.80;99.90
11812;DHT22;5963;50.184;9.162;2022-08-03T07:12:24;23.90;99.90
11812;DHT22;5963;50.184;9.162;2022-08-03T07:14:52;24.10;99.90
11812;DHT22;5963;50.184;9.162;2022-08-03T07:17:26;23.70;99.90
11812;DHT22;5963;50.184;9.162;2022-08-03T07:19:59;23.90;99.90
11812;DHT22;5963;50.184;9.162;2022-08-03T07:22:28;24.10;99.90
11812;DHT22;5963;50.184;9.162;2022-08-03T07:24:56;24.20;99.90
11812;DHT22;5963;50.184;9.162;2022-08-03T07:27:24;24.30;99.90
11812;DHT22;5963;50.184;9.162;2022-08-03T07:29:56;24.40;99.90
11812;DHT22;5963;50.184;9.162;2022-08-03T07:32:25;24.60;99.90
11812;DHT22;5963;50.184;9.162;2022-08-03T07:34:54;24.70;99.90
11812;DHT22;5963;50.184;9.162;2022-08-03T07:37:29;24.80;99.90
11812;DHT22;5963;50.184;9.162;2022-08-03T07:39:57;24.80;99.90
11812;DHT22;5963;50.184;9.162;2022-08-03T07:42:26;24.90;99.90
11812;DHT22;5963;50.184;9.162;2022-08-03T07:44:54;25.10;99.90
11812;DHT22;5963;50.184;9.162;2022-08-03T07:47:26;25.40;99.90
11812;DHT22;5963;50.184;9.162;2022-08-03T07:50:03;25.50;99.90
11812;DHT22;5963;50.184;9.162;2022-08-03T07:52:32;25.80;99.90
11812;DHT22;5963;50.184;9.162;2022-08-03T07:55:17;26.00;99.90
11812;DHT22;5963;50.184;9.162;2022-08-03T07:57:45;26.10;99.90
11812;DHT22;5963;50.184;9.162;2022-08-03T08:00:16;26.30;99.90
11812;DHT22;5963;50.184;9.162;2022-08-03T08:02:44;26.30;99.90
11812;DHT22;5963;50.184;9.162;2022-08-03T08:05:12;26.50;99.90
11812;DHT22;5963;50.184;9.162;2022-08-03T08:07:42;26.80;99.90
11812;DHT22;5963;50.184;9.162;2022-08-03T08:10:17;27.10;99.90
11812;DHT22;5963;50.184;9.162;2022-08-03T08:12:45;27.20;99.90
11812;DHT22;5963;50.184;9.162;2022-08-03T08:15:13;27.10;99.90
11812;DHT22;5963;50.184;9.162;2022-08-03T08:17:43;27.50;99.90
11812;DHT22;5963;50.184;9.162;2022-08-03T08:20:15;27.70;99.90
11812;DHT22;5963;50.184;9.162;2022-08-03T08:22:57;28.00;99.90
11812;DHT22;5963;50.184;9.162;2022-08-03T08:25:27;28.30;99.90
11812;DHT22;5963;50.184;9.162;2022-08-03T08:27:56;28.50;99.90
11812;DHT22;5963;50.184;9.162;2022-08-03T08:30:44;28.70;99.90
11812;DHT22;5963;50.184;9.162;2022-08-03T08:33:12;29.00;99.90
11812;DHT22;5963;50.184;9.162;2022-08-03T08:35:50;29.10;99.90
11812;DHT22;5963;50.184;9.162;2022-08-03T08:38:20;29.10;99.90
11812;DHT22;5963;50.184;9.162;2022-08-03T08:40:49;28.70;99.90
11812;DHT22;5963;50.184;9.162;2022-08-03T08:43:17;29.00;99.90
11812;DHT22;5963;50.184;9.162;2022-08-03T08:45:46;29.40;99.90
11812;DHT22;5963;50.184;9.162;2022-08-03T08:48:18;29.50;99.90
11812;DHT22;5963;50.184;9.162;2022-08-03T08:50:52;29.50;99.90
11812;DHT22;5963;50.184;9.162;2022-08-03T08:53:22;29.60;99.90
11812;DHT22;5963;50.184;9.162;2022-08-03T08:55:54;29.90;99.90
11812;DHT22;5963;50.184;9.162;2022-08-03T08:58:28;30.10;99.90
11812;DHT22;5963;50.184;9.162;2022-08-03T09:00:57;30.00;99.90
11812;DHT22;5963;50.184;9.162;2022-08-03T09:03:25;30.30;99.90
11812;DHT22;5963;50.184;9.162;2022-08-03T09:05:58;30.30;99.90
11812;DHT22;5963;50.184;9.162;2022-08-03T09:08:28;30.20;99.90
11812;DHT22;5963;50.184;9.162;2022-08-03T09:10:56;30.50;99.90
11812;DHT22;5963;50.184;9.162;2022-08-03T09:13:25;30.50;99.60
11812;DHT22;5963;50.184;9.162;2022-08-03T09:16:10;30.80;97.80
11812;DHT22;5963;50.184;9.162;2022-08-03T09:18:39;31.00;97.40
11812;DHT22;5963;50.184;9.162;2022-08-03T09:21:26;31.00;96.00
11812;DHT22;5963;50.184;9.162;2022-08-03T09:24:02;31.10;97.10
11812;DHT22;5963;50.184;9.162;2022-08-03T09:26:35;31.10;95.80
11812;DHT22;5963;50.184;9.162;2022-08-03T09:29:05;31.50;94.60
11812;DHT22;5963;50.184;9.162;2022-08-03T09:31:42;31.60;94.40
11812;DHT22;5963;50.184;9.162;2022-08-03T09:34:12;31.60;94.80
11812;DHT22;5963;50.184;9.162;2022-08-03T09:36:42;31.90;94.10
11812;DHT22;5963;50.184;9.162;2022-08-03T09:39:14;31.80;92.90
11812;DHT22;5963;50.184;9.162;2022-08-03T09:41:44;31.90;93.10
11812;DHT22;5963;50.184;9.162;2022-08-03T09:44:13;32.10;92.20
11812;DHT22;5963;50.184;9.162;2022-08-03T09:46:53;32.30;92.10
11812;DHT22;5963;50.184;9.162;2022-08-03T09:49:23;32.60;91.80
11812;DHT22;5963;50.184;9.162;2022-08-03T09:51:52;32.50;91.00
11812;DHT22;5963;50.184;9.162;2022-08-03T09:54:42;31.80;90.70
11812;DHT22;5963;50.184;9.162;2022-08-03T09:57:20;31.00;90.80
11812;DHT22;5963;50.184;9.162;2022-08-03T09:59:49;31.40;90.80
11812;DHT22;5963;50.184;9.162;2022-08-03T10:02:30;31.40;90.50
11812;DHT22;5963;50.184;9.162;2022-08-03T10:04:59;31.50;91.20
11812;DHT22;5963;50.184;9.162;2022-08-03T10:07:27;32.00;90.20
11812;DHT22;5963;50.184;9.162;2022-08-03T10:09:58;32.10;88.50
11812;DHT22;5963;50.184;9.162;2022-08-03T10:12:48;32.60;88.00
11812;DHT22;5963;50.184;9.162;2022-08-03T10:15:17;32.50;89.50
11812;DHT22;5963;50.184;9.162;2022-08-03T10:18:06;32.40;89.80
11812;DHT22;5963;50.184;9.162;2022-08-03T10:20:37;32.60;86.80
11812;DHT22;5963;50.184;9.162;2022-08-03T10:23:07;33.00;85.30
11812;DHT22;5963;50.184;9.162;2022-08-03T10:25:37;33.40;83.80
11812;DHT22;5963;50.184;9.162;2022-08-03T10:28:14;33.40;83.50
11812;DHT22;5963;50.184;9.162;2022-08-03T10:30:47;33.60;84.60
11812;DHT22;5963;50.184;9.162;2022-08-03T10:33:19;33.30;84.20
11812;DHT22;5963;50.184;9.162;2022-08-03T10:36:08;33.40;81.40
11812;DHT22;5963;50.184;9.162;2022-08-03T10:38:37;32.50;81.60
11812;DHT22;5963;50.184;9.162;2022-08-03T10:41:09;32.90;81.30
11812;DHT22;5963;50.184;9.162;2022-08-03T10:43:50;32.70;82.80
11812;DHT22;5963;50.184;9.162;2022-08-03T10:46:20;33.10;81.50
11812;DHT22;5963;50.184;9.162;2022-08-03T10:48:49;33.30;81.70
11812;DHT22;5963;50.184;9.162;2022-08-03T10:51:18;33.40;79.70
11812;DHT22;5963;50.184;9.162;2022-08-03T10:53:47;33.10;80.40
11812;DHT22;5963;50.184;9.162;2022-08-03T10:56:40;33.10;80.10
11812;DHT22;5963;50.184;9.162;2022-08-03T10:59:57;33.40;78.10
11812;DHT22;5963;50.184;9.162;2022-08-03T11:05:28;32.70;79.20
11812;DHT22;5963;50.184;9.162;2022-08-03T11:08:22;33.40;79.30
11812;DHT22;5963;50.184;9.162;2022-08-03T11:10:52;33.80;77.80
11812;DHT22;5963;50.184;9.162;2022-08-03T11:13:24;34.10;78.20
11812;DHT22;5963;50.184;9.162;2022-08-03T11:15:56;34.40;76.00
11812;DHT22;5963;50.184;9.162;2022-08-03T11:18:28;34.40;74.90
11812;DHT22;5963;50.184;9.162;2022-08-03T11:20:58;34.30;75.40
11812;DHT22;5963;50.184;9.162;2022-08-03T11:23:47;34.10;74.10
11812;DHT22;5963;50.184;9.162;2022-08-03T11:26:32;34.20;74.40
11812;DHT22;5963;50.184;9.162;2022-08-03T11:29:27;34.60;74.10
11812;DHT22;5963;50.184;9.162;2022-08-03T11:31:56;34.90;72.60
11812;DHT22;5963;50.184;9.162;2022-08-03T11:34:24;34.90;71.70
11812;DHT22;5963;50.184;9.162;2022-08-03T11:37:18;34.40;74.60
11812;DHT22;5963;50.184;9.162;2022-08-03T11:39:51;34.50;72.40
11812;DHT22;5963;50.184;9.162;2022-08-03T11:42:42;33.90;71.90
11812;DHT22;5963;50.184;9.162;2022-08-03T11:45:14;33.50;71.30
11812;DHT22;5963;50.184;9.162;2022-08-03T11:47:43;33.80;71.70
11812;DHT22;5963;50.184;9.162;2022-08-03T11:50:17;34.40;71.90
11812;DHT22;5963;50.184;9.162;2022-08-03T11:52:48;34.20;72.80
11812;DHT22;5963;50.184;9.162;2022-08-03T11:55:18;33.80;71.70
11812;DHT22;5963;50.184;9.162;2022-08-03T11:57:48;33.40;73.70
11812;DHT22;5963;50.184;9.162;2022-08-03T12:00:37;34.10;71.50
11812;DHT22;5963;50.184;9.162;2022-08-03T12:03:07;34.70;69.90
11812;DHT22;5963;50.184;9.162;2022-08-03T12:05:42;34.20;70.80
11812;DHT22;5963;50.184;9.162;2022-08-03T12:08:28;33.90;70.00
11812;DHT22;5963;50.184;9.162;2022-08-03T12:10:58;33.80;70.70
11812;DHT22;5963;50.184;9.162;2022-08-03T12:13:36;34.40;71.00
11812;DHT22;5963;50.184;9.162;2022-08-03T12:16:25;34.90;68.30
11812;DHT22;5963;50.184;9.162;2022-08-03T12:18:56;34.50;69.00
11812;DHT22;5963;50.184;9.162;2022-08-03T12:21:24;34.40;68.40
11812;DHT22;5963;50.184;9.162;2022-08-03T12:23:56;34.60;69.40
11812;DHT22;5963;50.184;9.162;2022-08-03T12:26:26;34.70;68.60
11812;DHT22;5963;50.184;9.162;2022-08-03T12:28:55;34.90;67.40
11812;DHT22;5963;50.184;9.162;2022-08-03T12:31:24;35.10;67.60
11812;DHT22;5963;50.184;9.162;2022-08-03T12:33:58;35.40;67.30
11812;DHT22;5963;50.184;9.162;2022-08-03T12:36:32;35.40;66.80
11812;DHT22;5963;50.184;9.162;2022-08-03T12:39:02;34.90;67.30
11812;DHT22;5963;50.184;9.162;2022-08-03T12:41:31;34.10;69.20
11812;DHT22;5963;50.184;9.162;2022-08-03T12:44:01;34.10;69.00
11812;DHT22;5963;50.184;9.162;2022-08-03T12:46:33;34.20;69.20
11812;DHT22;5963;50.184;9.162;2022-08-03T12:49:07;34.10;69.20
11812;DHT22;5963;50.184;9.162;2022-08-03T12:54:24;35.20;67.00
11812;DHT22;5963;50.184;9.162;2022-08-03T12:56:58;35.00;65.40
11812;DHT22;5963;50.184;9.162;2022-08-03T12:59:28;34.50;67.20
11812;DHT22;5963;50.184;9.162;2022-08-03T13:02:03;34.80;67.60
11812;DHT22;5963;50.184;9.162;2022-08-03T13:04:36;34.80;67.70
11812;DHT22;5963;50.184;9.162;2022-08-03T13:07:06;34.10;67.70
11812;DHT22;5963;50.184;9.162;2022-08-03T13:09:41;34.40;67.20
11812;DHT22;5963;50.184;9.162;2022-08-03T13:12:11;34.10;65.70
11812;DHT22;5963;50.184;9.162;2022-08-03T13:14:40;33.50;65.90
11812;DHT22;5963;50.184;9.162;2022-08-03T13:17:09;33.70;67.80
11812;DHT22;5963;50.184;9.162;2022-08-03T13:19:38;34.00;65.90
11812;DHT22;5963;50.184;9.162;2022-08-03T13:22:10;34.20;67.10
11812;DHT22;5963;50.184;9.162;2022-08-03T13:24:38;34.40;66.20
11812;DHT22;5963;50.184;9.162;2022-08-03T13:27:07;34.90;64.70
11812;DHT22;5963;50.184;9.162;2022-08-03T13:29:55;35.20;65.30
11812;DHT22;5963;50.184;9.162;2022-08-03T13:32:25;35.00;65.50
11812;DHT22;5963;50.184;9.162;2022-08-03T13:34:53;35.30;64.10
11812;DHT22;5963;50.184;9.162;2022-08-03T13:37:21;35.40;65.30
11812;DHT22;5963;50.184;9.162;2022-08-03T13:39:49;35.70;64.80
11812;DHT22;5963;50.184;9.162;2022-08-03T13:42:27;35.80;64.20
11812;DHT22;5963;50.184;9.162;2022-08-03T13:44:55;35.90;63.10
11812;DHT22;5963;50.184;9.162;2022-08-03T13:47:24;36.00;64.10
11812;DHT22;5963;50.184;9.162;2022-08-03T13:49:53;36.00;62.90
11812;DHT22;5963;50.184;9.162;2022-08-03T13:52:29;36.00;63.10
11812;DHT22;5963;50.184;9.162;2022-08-03T13:54:57;36.10;62.50
11812;DHT22;5963;50.184;9.162;2022-08-03T13:57:25;35.80;63.60
11812;DHT22;5963;50.184;9.162;2022-08-03T14:00:14;35.50;63.70
11812;DHT22;5963;50.184;9.162;2022-08-03T14:02:56;35.70;62.60
11812;DHT22;5963;50.184;9.162;2022-08-03T14:05:35;35.70;62.70
11812;DHT22;5963;50.184;9.162;2022-08-03T14:08:05;35.90;62.10
11812;DHT22;5963;50.184;9.162;2022-08-03T14:10:35;35.90;62.60
11812;DHT22;5963;50.184;9.162;2022-08-03T14:13:03;35.90;62.50
11812;DHT22;5963;50.184;9.162;2022-08-03T14:15:32;36.00;61.60
11812;DHT22;5963;50.184;9.162;2022-08-03T14:18:05;36.00;61.60
11812;DHT22;5963;50.184;9.162;2022-08-03T14:20:41;36.00;61.40
11812;DHT22;5963;50.184;9.162;2022-08-03T14:23:16;35.40;61.50
11812;DHT22;5963;50.184;9.162;2022-08-03T14:25:44;35.10;63.00
11812;DHT22;5963;50.184;9.162;2022-08-03T14:28:19;35.40;61.70
11812;DHT22;5963;50.184;9.162;2022-08-03T14:30:48;35.50;60.90
11812;DHT22;5963;50.184;9.162;2022-08-03T14:33:18;35.50;60.90
11812;DHT22;5963;50.184;9.162;2022-08-03T14:35:46;35.40;62.40
11812;DHT22;5963;50.184;9.162;2022-08-03T14:38:14;35.30;61.40
11812;DHT22;5963;50.184;9.162;2022-08-03T14:40:43;35.20;60.40
11812;DHT22;5963;50.184;9.162;2022-08-03T14:43:11;34.60;60.40
11812;DHT22;5963;50.184;9.162;2022-08-03T14:45:40;34.20;61.90
11812;DHT22;5963;50.184;9.162;2022-08-03T14:48:08;34.00;62.20
11812;DHT22;5963;50.184;9.162;2022-08-03T14:50:59;34.30;61.80
11812;DHT22;5963;50.184;9.162;2022-08-03T14:53:27;34.80;61.50
11812;DHT22;5963;50.184;9.162;2022-08-03T14:55:56;34.80;61.10
11812;DHT22;5963;50.184;9.162;2022-08-03T14:58:24;34.70;60.90
11812;DHT22;5963;50.184;9.162;2022-08-03T15:00:54;34.70;60.70
11812;DHT22;5963;50.184;9.162;2022-08-03T15:03:23;34.80;61.40
11812;DHT22;5963;50.184;9.162;2022-08-03T15:05:52;35.20;60.30
11812;DHT22;5963;50.184;9.162;2022-08-03T15:08:23;35.20;60.50
11812;DHT22;5963;50.184;9.162;2022-08-03T15:10:52;35.20;61.20
11812;DHT22;5963;50.184;9.162;2022-08-03T15:13:20;35.20;61.20
11812;DHT22;5963;50.184;9.162;2022-08-03T15:15:49;35.10;61.30
11812;DHT22;5963;50.184;9.162;2022-08-03T15:18:17;34.60;60.70
11812;DHT22;5963;50.184;9.162;2022-08-03T15:20:46;34.70;60.90
11812;DHT22;5963;50.184;9.162;2022-08-03T15:23:17;34.90;61.80
11812;DHT22;5963;50.184;9.162;2022-08-03T15:25:46;35.10;61.40
11812;DHT22;5963;50.184;9.162;2022-08-03T15:28:34;34.70;61.20
11812;DHT22;5963;50.184;9.162;2022-08-03T15:31:04;34.90;60.60
11812;DHT22;5963;50.184;9.162;2022-08-03T15:33:32;35.10;60.70
11812;DHT22;5963;50.184;9.162;2022-08-03T15:36:01;34.40;61.00
11812;DHT22;5963;50.184;9.162;2022-08-03T15:38:30;34.30;62.20
11812;DHT22;5963;50.184;9.162;2022-08-03T15:40:59;34.70;62.60
11812;DHT22;5963;50.184;9.162;2022-08-03T15:43:27;34.90;61.00
11812;DHT22;5963;50.184;9.162;2022-08-03T15:45:55;35.20;61.50
11812;DHT22;5963;50.184;9.162;2022-08-03T15:48:44;35.30;60.70
11812;DHT22;5963;50.184;9.162;2022-08-03T15:51:12;35.20;60.70
11812;DHT22;5963;50.184;9.162;2022-08-03T15:53:41;35.10;61.20
11812;DHT22;5963;50.184;9.162;2022-08-03T15:56:10;35.10;60.10
11812;DHT22;5963;50.184;9.162;2022-08-03T15:58:44;35.10;60.50
11812;DHT22;5963;50.184;9.162;2022-08-03T16:01:32;34.80;59.70
11812;DHT22;5963;50.184;9.162;2022-08-03T16:04:00;33.90;61.50
11812;DHT22;5963;50.184;9.162;2022-08-03T16:06:30;34.20;62.40
11812;DHT22;5963;50.184;9.162;2022-08-03T16:09:03;34.40;60.80
11812;DHT22;5963;50.184;9.162;2022-08-03T16:11:53;34.60;60.70
11812;DHT22;5963;50.184;9.162;2022-08-03T16:14:21;34.70;60.60
11812;DHT22;5963;50.184;9.162;2022-08-03T16:17:01;34.80;61.00
11812;DHT22;5963;50.184;9.162;2022-08-03T16:19:29;34.80;60.70
11812;DHT22;5963;50.184;9.162;2022-08-03T16:21:58;34.60;60.90
11812;DHT22;5963;50.184;9.162;2022-08-03T16:24:26;34.50;62.00